sensor_id;sensor_type;location;lat;lon;timestamp;P1;durP1;ratioP1;P2;durP2;ratioP2
55222;SDS011;41090;48.632;12.428;2022-08-05T00:01:41;4.20;;;3.77;;
55222;SDS011;41090;48.632;12.428;2022-08-05T00:04:07;4.83;;;3.57;;
55222;SDS011;41090;48.632;12.428;2022-08-05T00:06:32;3.90;;;3.40;;
55222;SDS011;41090;48.632;12.428;2022-08-05T00:08:57;4.03;;;3.73;;
55222;SDS011;41090;48.632;12.428;2022-08-05T00:11:24;5.13;;;3.70;;
55222;SDS011;41090;48.632;12.428;2022-08-05T00:13:49;4.97;;;3.80;;
55222;SDS011;41090;48.632;12.428;2022-08-05T00:16:14;3.80;;;3.50;;
55222;SDS011;41090;48.632;12.428;2022-08-05T00:18:41;5.23;;;3.77;;
55222;SDS011;41090;48.632;12.428;2022-08-05T00:21:06;4.47;;;3.87;;
55222;SDS011;41090;48.632;12.428;2022-08-05T00:23:31;3.97;;;3.47;;
55222;SDS011;41090;48.632;12.428;2022-08-05T00:25:57;4.33;;;3.93;;
55222;SDS011;41090;48.632;12.428;2022-08-05T00:28:22;4.23;;;3.83;;
55222;SDS011;41090;48.632;12.428;2022-08-05T00:30:47;4.03;;;3.70;;
55222;SDS011;41090;48.632;12.428;2022-08-05T00:33:12;4.83;;;4.03;;
55222;SDS011;41090;48.632;12.428;2022-08-05T00:35:39;4.30;;;3.90;;
55222;SDS011;41090;48.632;12.428;2022-08-05T00:38:05;4.17;;;3.70;;
55222;SDS011;41090;48.632;12.428;2022-08-05T00:40:30;5.10;;;4.17;;
55222;SDS011;41090;48.632;12.428;2022-08-05T00:42:56;4.03;;;3.70;;
55222;SDS011;41090;48.632;12.428;2022-08-05T00:45:22;4.20;;;3.90;;
55222;SDS011;41090;48.632;12.428;2022-08-05T00:47:47;4.57;;;4.03;;
55222;SDS011;41090;48.632;12.428;2022-08-05T00:50:12;4.40;;;4.00;;
55222;SDS011;41090;48.632;12.428;2022-08-05T00:52:37;4.27;;;3.87;;
55222;SDS011;41090;48.632;12.428;2022-08-05T00:55:03;4.30;;;3.90;;
55222;SDS011;41090;48.632;12.428;2022-08-05T00:57:28;4.47;;;3.97;;
55222;SDS011;41090;48.632;12.428;2022-08-05T00:59:53;5.87;;;4.23;;
55222;SDS011;41090;48.632;12.428;2022-08-05T01:02:19;4.63;;;4.20;;
55222;SDS011;41090;48.632;12.428;2022-08-05T01:04:44;4.20;;;3.90;;
55222;SDS011;41090;48.632;12.428;2022-08-05T01:07:09;4.20;;;3.80;;
55222;SDS011;41090;48.632;12.428;2022-08-05T01:09:34;4.50;;;4.20;;
55222;SDS011;41090;48.632;12.428;2022-08-05T01:12:02;4.60;;;4.20;;
55222;SDS011;41090;48.632;12.428;2022-08-05T01:14:36;4.33;;;4.03;;
55222;SDS011;41090;48.632;12.428;2022-08-05T01:20:18;4.87;;;4.03;;
55222;SDS011;41090;48.632;12.428;2022-08-05T01:23:01;4.80;;;4.40;;
55222;SDS011;41090;48.632;12.428;2022-08-05T01:30:51;4.50;;;4.10;;
55222;SDS011;41090;48.632;12.428;2022-08-05T01:33:17;4.43;;;4.10;;
55222;SDS011;41090;48.632;12.428;2022-08-05T01:35:45;4.50;;;4.10;;
55222;SDS011;41090;48.632;12.428;2022-08-05T01:38:11;4.30;;;3.73;;
55222;SDS011;41090;48.632;12.428;2022-08-05T01:40:37;4.70;;;4.30;;
55222;SDS011;41090;48.632;12.428;2022-08-05T01:43:03;4.60;;;4.20;;
55222;SDS011;41090;48.632;12.428;2022-08-05T01:45:29;4.87;;;4.47;;
55222;SDS011;41090;48.632;12.428;2022-08-05T01:47:56;4.67;;;4.13;;
55222;SDS011;41090;48.632;12.428;2022-08-05T01:50:26;5.40;;;4.30;;
55222;SDS011;41090;48.632;12.428;2022-08-05T01:52:52;5.43;;;4.27;;
55222;SDS011;41090;48.632;12.428;2022-08-05T01:55:19;5.77;;;4.60;;
55222;SDS011;41090;48.632;12.428;2022-08-05T01:57:44;5.30;;;4.80;;
55222;SDS011;41090;48.632;12.428;2022-08-05T02:00:11;4.60;;;4.20;;
55222;SDS011;41090;48.632;12.428;2022-08-05T02:02:43;4.20;;;3.90;;
55222;SDS011;41090;48.632;12.428;2022-08-05T02:05:10;4.33;;;4.00;;
55222;SDS011;41090;48.632;12.428;2022-08-05T02:07:36;4.73;;;4.43;;
55222;SDS011;41090;48.632;12.428;2022-08-05T02:10:02;4.93;;;4.47;;
55222;SDS011;41090;48.632;12.428;2022-08-05T02:15:10;4.40;;;4.00;;
55222;SDS011;41090;48.632;12.428;2022-08-05T02:17:40;4.50;;;4.10;;
55222;SDS011;41090;48.632;12.428;2022-08-05T02:20:10;4.63;;;4.23;;
55222;SDS011;41090;48.632;12.428;2022-08-05T02:22:39;5.07;;;4.67;;
55222;SDS011;41090;48.632;12.428;2022-08-05T02:25:11;6.17;;;4.50;;
55222;SDS011;41090;48.632;12.428;2022-08-05T02:27:37;4.53;;;4.23;;
55222;SDS011;41090;48.632;12.428;2022-08-05T02:30:04;4.53;;;4.23;;
55222;SDS011;41090;48.632;12.428;2022-08-05T02:32:30;4.77;;;4.37;;
55222;SDS011;41090;48.632;12.428;2022-08-05T02:34:57;4.57;;;4.17;;
55222;SDS011;41090;48.632;12.428;2022-08-05T02:37:23;4.23;;;3.93;;
55222;SDS011;41090;48.632;12.428;2022-08-05T02:39:49;4.23;;;3.83;;
55222;SDS011;41090;48.632;12.428;2022-08-05T02:42:14;4.40;;;4.10;;
55222;SDS011;41090;48.632;12.428;2022-08-05T02:44:40;4.33;;;4.03;;
55222;SDS011;41090;48.632;12.428;2022-08-05T02:47:07;4.80;;;4.40;;
55222;SDS011;41090;48.632;12.428;2022-08-05T02:49:35;4.47;;;4.10;;
55222;SDS011;41090;48.632;12.428;2022-08-05T02:52:00;4.90;;;4.50;;
55222;SDS011;41090;48.632;12.428;2022-08-05T02:54:26;4.70;;;4.30;;
55222;SDS011;41090;48.632;12.428;2022-08-05T02:56:52;5.23;;;4.43;;
55222;SDS011;41090;48.632;12.428;2022-08-05T02:59:17;5.07;;;4.67;;
55222;SDS011;41090;48.632;12.428;2022-08-05T03:01:43;4.73;;;4.33;;
55222;SDS011;41090;48.632;12.428;2022-08-05T03:04:11;5.67;;;4.70;;
55222;SDS011;41090;48.632;12.428;2022-08-05T03:06:37;5.37;;;4.90;;
55222;SDS011;41090;48.632;12.428;2022-08-05T03:09:03;4.97;;;4.40;;
55222;SDS011;41090;48.632;12.428;2022-08-05T03:11:28;5.40;;;5.00;;
55222;SDS011;41090;48.632;12.428;2022-08-05T03:13:54;5.37;;;4.70;;
55222;SDS011;41090;48.632;12.428;2022-08-05T03:16:19;5.30;;;4.87;;
55222;SDS011;41090;48.632;12.428;2022-08-05T03:18:45;5.50;;;5.00;;
55222;SDS011;41090;48.632;12.428;2022-08-05T03:21:10;5.43;;;4.93;;
55222;SDS011;41090;48.632;12.428;2022-08-05T03:23:37;5.30;;;4.87;;
55222;SDS011;41090;48.632;12.428;2022-08-05T03:26:02;5.03;;;4.60;;
55222;SDS011;41090;48.632;12.428;2022-08-05T03:28:28;5.47;;;5.07;;
55222;SDS011;41090;48.632;12.428;2022-08-05T03:30:54;5.60;;;5.10;;
55222;SDS011;41090;48.632;12.428;2022-08-05T03:33:20;4.80;;;4.40;;
55222;SDS011;41090;48.632;12.428;2022-08-05T03:35:46;4.83;;;4.43;;
55222;SDS011;41090;48.632;12.428;2022-08-05T03:38:12;5.03;;;4.53;;
55222;SDS011;41090;48.632;12.428;2022-08-05T03:40:44;5.30;;;4.90;;
55222;SDS011;41090;48.632;12.428;2022-08-05T03:43:09;6.00;;;5.00;;
55222;SDS011;41090;48.632;12.428;2022-08-05T03:45:34;5.40;;;4.90;;
55222;SDS011;41090;48.632;12.428;2022-08-05T03:48:00;5.37;;;4.87;;
55222;SDS011;41090;48.632;12.428;2022-08-05T03:50:39;5.00;;;4.60;;
55222;SDS011;41090;48.632;12.428;2022-08-05T03:53:07;4.73;;;4.43;;
55222;SDS011;41090;48.632;12.428;2022-08-05T03:55:36;4.90;;;4.50;;
55222;SDS011;41090;48.632;12.428;2022-08-05T03:58:03;6.03;;;5.33;;
55222;SDS011;41090;48.632;12.428;2022-08-05T04:00:32;5.03;;;4.63;;
55222;SDS011;41090;48.632;12.428;2022-08-05T04:02:57;5.03;;;4.57;;
55222;SDS011;41090;48.632;12.428;2022-08-05T04:05:23;5.37;;;4.97;;
55222;SDS011;41090;48.632;12.428;2022-08-05T04:07:49;6.10;;;5.70;;
55222;SDS011;41090;48.632;12.428;2022-08-05T04:10:15;5.63;;;5.13;;
55222;SDS011;41090;48.632;12.428;2022-08-05T04:12:41;7.63;;;5.60;;
55222;SDS011;41090;48.632;12.428;2022-08-05T04:15:06;6.63;;;5.50;;
55222;SDS011;41090;48.632;12.428;2022-08-05T04:17:32;5.67;;;5.13;;
55222;SDS011;41090;48.632;12.428;2022-08-05T04:19:58;5.03;;;4.73;;
55222;SDS011;41090;48.632;12.428;2022-08-05T04:22:23;9.40;;;5.37;;
55222;SDS011;41090;48.632;12.428;2022-08-05T04:24:48;6.90;;;6.27;;
55222;SDS011;41090;48.632;12.428;2022-08-05T04:27:13;6.60;;;5.50;;
55222;SDS011;41090;48.632;12.428;2022-08-05T04:29:40;6.20;;;5.77;;
55222;SDS011;41090;48.632;12.428;2022-08-05T04:32:06;6.30;;;5.43;;
55222;SDS011;41090;48.632;12.428;2022-08-05T04:34:31;5.83;;;5.33;;
55222;SDS011;41090;48.632;12.428;2022-08-05T04:36:57;5.90;;;5.40;;
55222;SDS011;41090;48.632;12.428;2022-08-05T04:39:22;8.70;;;5.60;;
55222;SDS011;41090;48.632;12.428;2022-08-05T04:41:47;5.93;;;5.33;;
55222;SDS011;41090;48.632;12.428;2022-08-05T04:44:12;5.63;;;5.10;;
55222;SDS011;41090;48.632;12.428;2022-08-05T04:46:38;6.07;;;5.37;;
55222;SDS011;41090;48.632;12.428;2022-08-05T04:49:04;5.30;;;4.90;;
55222;SDS011;41090;48.632;12.428;2022-08-05T04:51:30;5.70;;;5.20;;
55222;SDS011;41090;48.632;12.428;2022-08-05T04:53:56;6.00;;;5.40;;
55222;SDS011;41090;48.632;12.428;2022-08-05T04:56:21;6.23;;;5.03;;
55222;SDS011;41090;48.632;12.428;2022-08-05T04:58:46;5.63;;;5.13;;
55222;SDS011;41090;48.632;12.428;2022-08-05T05:01:12;5.30;;;4.80;;
55222;SDS011;41090;48.632;12.428;2022-08-05T05:03:37;5.67;;;5.27;;
55222;SDS011;41090;48.632;12.428;2022-08-05T05:06:02;5.57;;;5.13;;
55222;SDS011;41090;48.632;12.428;2022-08-05T05:08:28;6.00;;;5.40;;
55222;SDS011;41090;48.632;12.428;2022-08-05T05:10:53;5.40;;;5.00;;
55222;SDS011;41090;48.632;12.428;2022-08-05T05:13:20;6.27;;;5.77;;
55222;SDS011;41090;48.632;12.428;2022-08-05T05:15:45;6.33;;;5.83;;
55222;SDS011;41090;48.632;12.428;2022-08-05T05:18:14;6.40;;;5.90;;
55222;SDS011;41090;48.632;12.428;2022-08-05T05:20:41;6.23;;;5.50;;
55222;SDS011;41090;48.632;12.428;2022-08-05T05:23:06;5.70;;;5.30;;
55222;SDS011;41090;48.632;12.428;2022-08-05T05:25:31;6.50;;;5.90;;
55222;SDS011;41090;48.632;12.428;2022-08-05T05:27:56;6.93;;;6.27;;
55222;SDS011;41090;48.632;12.428;2022-08-05T05:30:22;6.60;;;6.00;;
55222;SDS011;41090;48.632;12.428;2022-08-05T05:32:47;7.00;;;5.30;;
55222;SDS011;41090;48.632;12.428;2022-08-05T05:35:12;7.50;;;5.63;;
55222;SDS011;41090;48.632;12.428;2022-08-05T05:37:54;6.73;;;6.07;;
55222;SDS011;41090;48.632;12.428;2022-08-05T05:40:21;5.97;;;5.47;;
55222;SDS011;41090;48.632;12.428;2022-08-05T05:42:46;6.50;;;5.90;;
55222;SDS011;41090;48.632;12.428;2022-08-05T05:45:12;6.80;;;6.17;;
55222;SDS011;41090;48.632;12.428;2022-08-05T05:47:37;6.30;;;5.80;;
55222;SDS011;41090;48.632;12.428;2022-08-05T05:50:03;6.23;;;5.73;;
55222;SDS011;41090;48.632;12.428;2022-08-05T05:52:29;5.90;;;5.40;;
55222;SDS011;41090;48.632;12.428;2022-08-05T05:54:57;7.80;;;6.50;;
55222;SDS011;41090;48.632;12.428;2022-08-05T05:57:22;10.50;;;6.73;;
55222;SDS011;41090;48.632;12.428;2022-08-05T05:59:47;7.00;;;6.30;;
55222;SDS011;41090;48.632;12.428;2022-08-05T06:02:13;6.97;;;6.20;;
55222;SDS011;41090;48.632;12.428;2022-08-05T06:04:38;6.60;;;6.00;;
55222;SDS011;41090;48.632;12.428;2022-08-05T06:07:03;7.00;;;5.60;;
55222;SDS011;41090;48.632;12.428;2022-08-05T06:09:28;8.30;;;5.80;;
55222;SDS011;41090;48.632;12.428;2022-08-05T06:11:54;6.60;;;6.00;;
55222;SDS011;41090;48.632;12.428;2022-08-05T06:14:19;6.07;;;5.50;;
55222;SDS011;41090;48.632;12.428;2022-08-05T06:16:44;7.07;;;6.37;;
55222;SDS011;41090;48.632;12.428;2022-08-05T06:19:09;7.93;;;6.37;;
55222;SDS011;41090;48.632;12.428;2022-08-05T06:21:35;7.77;;;6.40;;
55222;SDS011;41090;48.632;12.428;2022-08-05T06:24:00;6.70;;;6.10;;
55222;SDS011;41090;48.632;12.428;2022-08-05T06:26:26;6.20;;;5.60;;
55222;SDS011;41090;48.632;12.428;2022-08-05T06:28:51;6.90;;;6.20;;
55222;SDS011;41090;48.632;12.428;2022-08-05T06:31:16;9.75;;;7.50;;
55222;SDS011;41090;48.632;12.428;2022-08-05T06:33:41;6.65;;;6.05;;
55222;SDS011;41090;48.632;12.428;2022-08-05T06:36:06;6.10;;;5.50;;
55222;SDS011;41090;48.632;12.428;2022-08-05T06:38:34;6.30;;;5.75;;
55222;SDS011;41090;48.632;12.428;2022-08-05T06:40:59;8.35;;;6.07;;
55222;SDS011;41090;48.632;12.428;2022-08-05T06:43:24;7.82;;;5.72;;
55222;SDS011;41090;48.632;12.428;2022-08-05T06:45:50;7.93;;;5.95;;
55222;SDS011;41090;48.632;12.428;2022-08-05T06:48:17;6.18;;;5.25;;
55222;SDS011;41090;48.632;12.428;2022-08-05T06:50:42;7.38;;;5.68;;
55222;SDS011;41090;48.632;12.428;2022-08-05T06:53:08;8.63;;;5.57;;
55222;SDS011;41090;48.632;12.428;2022-08-05T06:55:33;8.07;;;5.60;;
55222;SDS011;41090;48.632;12.428;2022-08-05T06:57:58;5.95;;;5.32;;
55222;SDS011;41090;48.632;12.428;2022-08-05T07:00:23;7.15;;;5.10;;
55222;SDS011;41090;48.632;12.428;2022-08-05T07:02:49;5.55;;;5.15;;
55222;SDS011;41090;48.632;12.428;2022-08-05T07:05:14;6.03;;;5.43;;
55222;SDS011;41090;48.632;12.428;2022-08-05T07:07:39;8.07;;;5.50;;
55222;SDS011;41090;48.632;12.428;2022-08-05T07:10:05;5.85;;;5.22;;
55222;SDS011;41090;48.632;12.428;2022-08-05T07:12:31;5.53;;;5.00;;
55222;SDS011;41090;48.632;12.428;2022-08-05T07:15:15;7.82;;;5.85;;
55222;SDS011;41090;48.632;12.428;2022-08-05T07:17:59;5.90;;;5.07;;
55222;SDS011;41090;48.632;12.428;2022-08-05T07:20:24;5.90;;;5.40;;
55222;SDS011;41090;48.632;12.428;2022-08-05T07:22:49;6.73;;;4.97;;
55222;SDS011;41090;48.632;12.428;2022-08-05T07:25:14;4.90;;;4.50;;
55222;SDS011;41090;48.632;12.428;2022-08-05T07:27:39;4.97;;;4.45;;
55222;SDS011;41090;48.632;12.428;2022-08-05T07:30:05;5.47;;;4.20;;
55222;SDS011;41090;48.632;12.428;2022-08-05T07:32:33;3.95;;;3.72;;
55222;SDS011;41090;48.632;12.428;2022-08-05T07:34:59;6.55;;;4.55;;
55222;SDS011;41090;48.632;12.428;2022-08-05T07:37:24;3.73;;;3.33;;
55222;SDS011;41090;48.632;12.428;2022-08-05T07:39:49;5.50;;;3.60;;
55222;SDS011;41090;48.632;12.428;2022-08-05T07:42:14;4.27;;;3.40;;
55222;SDS011;41090;48.632;12.428;2022-08-05T07:44:40;3.83;;;3.63;;
55222;SDS011;41090;48.632;12.428;2022-08-05T07:47:05;4.15;;;3.85;;
55222;SDS011;41090;48.632;12.428;2022-08-05T07:49:30;3.93;;;3.53;;
55222;SDS011;41090;48.632;12.428;2022-08-05T07:51:55;3.90;;;3.57;;
55222;SDS011;41090;48.632;12.428;2022-08-05T07:54:23;4.07;;;3.70;;
55222;SDS011;41090;48.632;12.428;2022-08-05T07:56:50;4.40;;;4.00;;
55222;SDS011;41090;48.632;12.428;2022-08-05T07:59:15;8.75;;;3.72;;
55222;SDS011;41090;48.632;12.428;2022-08-05T08:01:41;4.50;;;4.00;;
55222;SDS011;41090;48.632;12.428;2022-08-05T08:04:06;5.00;;;4.50;;
55222;SDS011;41090;48.632;12.428;2022-08-05T08:06:31;4.40;;;4.10;;
55222;SDS011;41090;48.632;12.428;2022-08-05T08:08:56;4.70;;;4.30;;
55222;SDS011;41090;48.632;12.428;2022-08-05T08:11:22;4.87;;;4.50;;
55222;SDS011;41090;48.632;12.428;2022-08-05T08:13:47;5.57;;;4.30;;
55222;SDS011;41090;48.632;12.428;2022-08-05T08:16:12;4.93;;;4.53;;
55222;SDS011;41090;48.632;12.428;2022-08-05T08:18:37;5.70;;;5.30;;
55222;SDS011;41090;48.632;12.428;2022-08-05T08:21:03;6.05;;;5.55;;
55222;SDS011;41090;48.632;12.428;2022-08-05T08:23:29;5.63;;;5.22;;
55222;SDS011;41090;48.632;12.428;2022-08-05T08:25:54;6.37;;;5.73;;
55222;SDS011;41090;48.632;12.428;2022-08-05T08:28:19;5.50;;;5.10;;
55222;SDS011;41090;48.632;12.428;2022-08-05T08:30:45;6.77;;;4.70;;
55222;SDS011;41090;48.632;12.428;2022-08-05T08:33:10;4.45;;;4.15;;
55222;SDS011;41090;48.632;12.428;2022-08-05T08:35:36;4.85;;;4.45;;
55222;SDS011;41090;48.632;12.428;2022-08-05T08:38:01;5.10;;;4.72;;
55222;SDS011;41090;48.632;12.428;2022-08-05T08:40:26;5.53;;;5.03;;
55222;SDS011;41090;48.632;12.428;2022-08-05T08:42:52;5.28;;;4.85;;
55222;SDS011;41090;48.632;12.428;2022-08-05T08:45:21;5.60;;;5.20;;
55222;SDS011;41090;48.632;12.428;2022-08-05T08:47:47;5.80;;;5.30;;
55222;SDS011;41090;48.632;12.428;2022-08-05T08:50:13;5.20;;;4.90;;
55222;SDS011;41090;48.632;12.428;2022-08-05T08:52:39;6.00;;;5.50;;
55222;SDS011;41090;48.632;12.428;2022-08-05T08:55:06;6.60;;;6.20;;
55222;SDS011;41090;48.632;12.428;2022-08-05T08:57:33;9.20;;;8.30;;
55222;SDS011;41090;48.632;12.428;2022-08-05T08:59:58;8.30;;;7.68;;
55222;SDS011;41090;48.632;12.428;2022-08-05T09:02:23;8.30;;;7.60;;
55222;SDS011;41090;48.632;12.428;2022-08-05T09:04:49;11.07;;;10.38;;
55222;SDS011;41090;48.632;12.428;2022-08-05T09:07:14;13.20;;;12.23;;
55222;SDS011;41090;48.632;12.428;2022-08-05T09:09:39;14.13;;;12.97;;
55222;SDS011;41090;48.632;12.428;2022-08-05T09:12:06;14.70;;;13.90;;
55222;SDS011;41090;48.632;12.428;2022-08-05T09:14:32;18.17;;;17.17;;
55222;SDS011;41090;48.632;12.428;2022-08-05T09:17:02;21.77;;;20.63;;
55222;SDS011;41090;48.632;12.428;2022-08-05T09:19:27;18.10;;;17.10;;
55222;SDS011;41090;48.632;12.428;2022-08-05T09:21:53;18.23;;;17.33;;
55222;SDS011;41090;48.632;12.428;2022-08-05T09:24:18;21.47;;;20.13;;
55222;SDS011;41090;48.632;12.428;2022-08-05T09:26:45;21.95;;;20.63;;
55222;SDS011;41090;48.632;12.428;2022-08-05T09:29:11;22.60;;;21.30;;
55222;SDS011;41090;48.632;12.428;2022-08-05T09:31:36;26.60;;;24.97;;
55222;SDS011;41090;48.632;12.428;2022-08-05T09:34:03;25.67;;;24.27;;
55222;SDS011;41090;48.632;12.428;2022-08-05T09:39:05;32.95;;;31.15;;
55222;SDS011;41090;48.632;12.428;2022-08-05T09:41:30;35.13;;;33.22;;
55222;SDS011;41090;48.632;12.428;2022-08-05T09:43:56;38.57;;;36.13;;
55222;SDS011;41090;48.632;12.428;2022-08-05T09:46:28;40.10;;;38.07;;
55222;SDS011;41090;48.632;12.428;2022-08-05T09:48:57;43.08;;;40.90;;
55222;SDS011;41090;48.632;12.428;2022-08-05T09:51:29;50.40;;;47.83;;
55222;SDS011;41090;48.632;12.428;2022-08-05T09:53:55;50.72;;;48.22;;
55222;SDS011;41090;48.632;12.428;2022-08-05T09:56:24;55.80;;;52.72;;
55222;SDS011;41090;48.632;12.428;2022-08-05T09:58:57;59.78;;;56.60;;
55222;SDS011;41090;48.632;12.428;2022-08-05T10:01:22;63.10;;;60.00;;
55222;SDS011;41090;48.632;12.428;2022-08-05T10:03:54;67.90;;;64.50;;
55222;SDS011;41090;48.632;12.428;2022-08-05T10:06:20;68.80;;;65.38;;
55222;SDS011;41090;48.632;12.428;2022-08-05T10:08:45;74.17;;;70.07;;
55222;SDS011;41090;48.632;12.428;2022-08-05T10:11:14;68.33;;;64.83;;
55222;SDS011;41090;48.632;12.428;2022-08-05T10:13:40;70.10;;;66.43;;
55222;SDS011;41090;48.632;12.428;2022-08-05T10:16:06;53.03;;;50.38;;
55222;SDS011;41090;48.632;12.428;2022-08-05T10:18:32;41.08;;;38.97;;
55222;SDS011;41090;48.632;12.428;2022-08-05T10:20:59;46.78;;;44.15;;
55222;SDS011;41090;48.632;12.428;2022-08-05T10:23:30;50.33;;;47.72;;
55222;SDS011;41090;48.632;12.428;2022-08-05T10:25:57;51.72;;;48.88;;
55222;SDS011;41090;48.632;12.428;2022-08-05T10:28:23;52.47;;;49.47;;
55222;SDS011;41090;48.632;12.428;2022-08-05T10:30:49;51.40;;;48.53;;
55222;SDS011;41090;48.632;12.428;2022-08-05T10:33:15;58.95;;;55.85;;
55222;SDS011;41090;48.632;12.428;2022-08-05T10:35:41;59.92;;;56.83;;
55222;SDS011;41090;48.632;12.428;2022-08-05T10:38:06;53.37;;;50.77;;
55222;SDS011;41090;48.632;12.428;2022-08-05T10:43:01;51.33;;;48.73;;
55222;SDS011;41090;48.632;12.428;2022-08-05T10:45:30;50.08;;;47.47;;
55222;SDS011;41090;48.632;12.428;2022-08-05T10:47:56;46.53;;;44.10;;
55222;SDS011;41090;48.632;12.428;2022-08-05T10:50:21;46.80;;;44.50;;
55222;SDS011;41090;48.632;12.428;2022-08-05T10:52:47;46.87;;;44.17;;
55222;SDS011;41090;48.632;12.428;2022-08-05T10:55:26;41.65;;;39.42;;
55222;SDS011;41090;48.632;12.428;2022-08-05T10:58:24;44.28;;;41.90;;
55222;SDS011;41090;48.632;12.428;2022-08-05T11:00:44;41.92;;;39.65;;
55222;SDS011;41090;48.632;12.428;2022-08-05T11:03:11;43.80;;;41.50;;
55222;SDS011;41090;48.632;12.428;2022-08-05T11:05:37;44.17;;;41.67;;
55222;SDS011;41090;48.632;12.428;2022-08-05T11:08:06;45.33;;;42.75;;
55222;SDS011;41090;48.632;12.428;2022-08-05T11:10:32;41.63;;;39.33;;
55222;SDS011;41090;48.632;12.428;2022-08-05T11:12:59;40.40;;;37.95;;
55222;SDS011;41090;48.632;12.428;2022-08-05T11:15:25;38.33;;;36.08;;
55222;SDS011;41090;48.632;12.428;2022-08-05T11:17:53;35.63;;;33.67;;
55222;SDS011;41090;48.632;12.428;2022-08-05T11:20:32;31.80;;;30.00;;
55222;SDS011;41090;48.632;12.428;2022-08-05T11:22:58;30.00;;;27.75;;
55222;SDS011;41090;48.632;12.428;2022-08-05T11:25:33;29.95;;;28.25;;
55222;SDS011;41090;48.632;12.428;2022-08-05T11:35:51;19.42;;;18.23;;
55222;SDS011;41090;48.632;12.428;2022-08-05T11:38:16;14.88;;;13.52;;
55222;SDS011;41090;48.632;12.428;2022-08-05T11:40:57;9.97;;;8.93;;
55222;SDS011;41090;48.632;12.428;2022-08-05T11:43:23;6.95;;;6.28;;
55222;SDS011;41090;48.632;12.428;2022-08-05T11:45:52;5.57;;;5.07;;
55222;SDS011;41090;48.632;12.428;2022-08-05T11:48:18;4.93;;;4.25;;
55222;SDS011;41090;48.632;12.428;2022-08-05T11:50:43;10.20;;;3.80;;
55222;SDS011;41090;48.632;12.428;2022-08-05T11:53:08;3.70;;;3.20;;
55222;SDS011;41090;48.632;12.428;2022-08-05T11:55:34;6.23;;;3.13;;
55222;SDS011;41090;48.632;12.428;2022-08-05T11:57:59;4.03;;;3.63;;
55222;SDS011;41090;48.632;12.428;2022-08-05T12:00:28;4.00;;;3.60;;
55222;SDS011;41090;48.632;12.428;2022-08-05T12:02:53;4.88;;;3.65;;
55222;SDS011;41090;48.632;12.428;2022-08-05T12:05:25;8.50;;;3.37;;
55222;SDS011;41090;48.632;12.428;2022-08-05T12:07:51;9.25;;;3.45;;
55222;SDS011;41090;48.632;12.428;2022-08-05T12:10:17;3.88;;;3.08;;
55222;SDS011;41090;48.632;12.428;2022-08-05T12:12:43;9.88;;;2.83;;
55222;SDS011;41090;48.632;12.428;2022-08-05T12:15:17;4.33;;;2.93;;
55222;SDS011;41090;48.632;12.428;2022-08-05T12:17:42;6.20;;;3.15;;
55222;SDS011;41090;48.632;12.428;2022-08-05T12:20:08;3.30;;;3.00;;
55222;SDS011;41090;48.632;12.428;2022-08-05T12:22:33;3.25;;;2.95;;
55222;SDS011;41090;48.632;12.428;2022-08-05T12:24:58;7.30;;;2.90;;
55222;SDS011;41090;48.632;12.428;2022-08-05T12:27:24;5.07;;;3.00;;
55222;SDS011;41090;48.632;12.428;2022-08-05T12:30:06;5.28;;;2.83;;
55222;SDS011;41090;48.632;12.428;2022-08-05T12:32:32;6.13;;;3.20;;
55222;SDS011;41090;48.632;12.428;2022-08-05T12:34:59;5.00;;;2.78;;
55222;SDS011;41090;48.632;12.428;2022-08-05T12:37:24;4.65;;;2.92;;
55222;SDS011;41090;48.632;12.428;2022-08-05T12:39:50;3.13;;;2.83;;
55222;SDS011;41090;48.632;12.428;2022-08-05T12:42:19;6.45;;;3.15;;
55222;SDS011;41090;48.632;12.428;2022-08-05T12:44:44;3.90;;;2.90;;
55222;SDS011;41090;48.632;12.428;2022-08-05T12:47:10;3.28;;;2.70;;
55222;SDS011;41090;48.632;12.428;2022-08-05T12:49:43;4.53;;;2.85;;
55222;SDS011;41090;48.632;12.428;2022-08-05T12:52:16;7.15;;;2.95;;
55222;SDS011;41090;48.632;12.428;2022-08-05T12:54:41;2.90;;;2.70;;
55222;SDS011;41090;48.632;12.428;2022-08-05T12:57:07;4.85;;;3.00;;
55222;SDS011;41090;48.632;12.428;2022-08-05T13:02:14;4.15;;;2.90;;
55222;SDS011;41090;48.632;12.428;2022-08-05T13:04:40;3.15;;;2.85;;
55222;SDS011;41090;48.632;12.428;2022-08-05T13:07:09;3.88;;;2.58;;
55222;SDS011;41090;48.632;12.428;2022-08-05T13:09:38;6.43;;;2.80;;
55222;SDS011;41090;48.632;12.428;2022-08-05T13:12:04;6.25;;;2.72;;
55222;SDS011;41090;48.632;12.428;2022-08-05T13:14:40;4.18;;;2.63;;
55222;SDS011;41090;48.632;12.428;2022-08-05T13:17:25;7.18;;;2.95;;
55222;SDS011;41090;48.632;12.428;2022-08-05T13:22:29;4.57;;;2.50;;
55222;SDS011;41090;48.632;12.428;2022-08-05T13:24:55;3.42;;;2.60;;
55222;SDS011;41090;48.632;12.428;2022-08-05T13:27:24;3.47;;;2.25;;
55222;SDS011;41090;48.632;12.428;2022-08-05T13:29:50;7.10;;;2.70;;
55222;SDS011;41090;48.632;12.428;2022-08-05T13:32:16;4.40;;;2.50;;
55222;SDS011;41090;48.632;12.428;2022-08-05T13:34:41;3.00;;;2.70;;
55222;SDS011;41090;48.632;12.428;2022-08-05T13:37:06;5.13;;;2.50;;
55222;SDS011;41090;48.632;12.428;2022-08-05T13:39:32;5.05;;;2.47;;
55222;SDS011;41090;48.632;12.428;2022-08-05T13:41:57;2.63;;;2.37;;
55222;SDS011;41090;48.632;12.428;2022-08-05T13:44:22;4.33;;;2.53;;
55222;SDS011;41090;48.632;12.428;2022-08-05T13:46:47;5.70;;;2.60;;
55222;SDS011;41090;48.632;12.428;2022-08-05T13:49:12;2.80;;;2.60;;
55222;SDS011;41090;48.632;12.428;2022-08-05T13:51:38;4.50;;;2.72;;
55222;SDS011;41090;48.632;12.428;2022-08-05T13:54:03;2.72;;;2.53;;
55222;SDS011;41090;48.632;12.428;2022-08-05T13:56:29;2.30;;;2.20;;
55222;SDS011;41090;48.632;12.428;2022-08-05T13:58:54;3.40;;;2.30;;
55222;SDS011;41090;48.632;12.428;2022-08-05T14:01:19;4.37;;;2.43;;
55222;SDS011;41090;48.632;12.428;2022-08-05T14:03:45;2.88;;;2.65;;
55222;SDS011;41090;48.632;12.428;2022-08-05T14:06:30;2.30;;;2.10;;
55222;SDS011;41090;48.632;12.428;2022-08-05T14:08:56;3.50;;;2.43;;
55222;SDS011;41090;48.632;12.428;2022-08-05T14:11:22;4.10;;;2.70;;
55222;SDS011;41090;48.632;12.428;2022-08-05T14:13:47;3.40;;;2.40;;
55222;SDS011;41090;48.632;12.428;2022-08-05T14:16:12;4.03;;;2.40;;
55222;SDS011;41090;48.632;12.428;2022-08-05T14:18:37;2.67;;;2.40;;
55222;SDS011;41090;48.632;12.428;2022-08-05T14:21:02;4.83;;;2.27;;
55222;SDS011;41090;48.632;12.428;2022-08-05T14:23:27;2.67;;;2.30;;
55222;SDS011;41090;48.632;12.428;2022-08-05T14:25:53;3.83;;;2.20;;
55222;SDS011;41090;48.632;12.428;2022-08-05T14:28:19;3.70;;;2.10;;
55222;SDS011;41090;48.632;12.428;2022-08-05T14:30:44;4.83;;;2.30;;
55222;SDS011;41090;48.632;12.428;2022-08-05T14:33:09;2.63;;;2.13;;
55222;SDS011;41090;48.632;12.428;2022-08-05T14:35:34;2.55;;;2.25;;
55222;SDS011;41090;48.632;12.428;2022-08-05T14:37:59;4.60;;;2.63;;
55222;SDS011;41090;48.632;12.428;2022-08-05T14:40:25;2.37;;;2.17;;
55222;SDS011;41090;48.632;12.428;2022-08-05T14:42:50;3.97;;;2.30;;
55222;SDS011;41090;48.632;12.428;2022-08-05T14:45:15;4.57;;;2.40;;
55222;SDS011;41090;48.632;12.428;2022-08-05T14:47:41;2.50;;;2.30;;
55222;SDS011;41090;48.632;12.428;2022-08-05T14:50:06;3.17;;;2.17;;
55222;SDS011;41090;48.632;12.428;2022-08-05T14:52:32;3.35;;;2.30;;
55222;SDS011;41090;48.632;12.428;2022-08-05T14:54:57;4.00;;;2.08;;
55222;SDS011;41090;48.632;12.428;2022-08-05T14:57:23;3.13;;;2.17;;